Time;durP1;ratioP1;P1;durP2;ratioP2;P2;SDS_P1;SDS_P2;PMS_P1;PMS_P2;Temp;Humidity;BMP_temperature;BMP_pressure;BME280_temperature;BME280_humidity;BME280_pressure;Samples;Min_cycle;Max_cycle;Signal;HPM_P1;HPM_P2
2021/08/26 00:00:33;;;;;;;3.73;3.00;;;;;;;22.84;86.78;97255.56;4949121;28;20354;-68
2021/08/26 00:05:49;;;;;;;2.83;2.63;;;;;;;22.53;86.66;97211.38;4949099;28;20407;-68
2021/08/26 00:08:18;;;;;;;3.10;2.80;;;;;;;22.72;86.91;97245.09;4947447;28;20291;-68
2021/08/26 00:10:44;;;;;;;3.37;2.97;;;;;;;22.70;86.95;97239.06;4931703;28;20271;-68
2021/08/26 00:13:11;;;;;;;3.20;2.90;;;;;;;22.41;86.92;97188.03;4946562;28;20729;-68
2021/08/26 00:15:46;;;;;;;3.17;2.87;;;;;;;22.41;86.92;97181.22;4953935;28;20208;-68
2021/08/26 00:18:15;;;;;;;3.40;3.10;;;;;;;22.80;87.32;97242.66;4948537;28;20286;-68
2021/08/26 00:20:42;;;;;;;3.20;2.90;;;;;;;21.78;87.08;97072.41;4944934;28;20243;-68
2021/08/26 00:23:08;;;;;;;3.20;2.90;;;;;;;22.79;87.12;97234.09;4938166;29;20287;-67
2021/08/26 00:25:36;;;;;;;2.83;2.63;;;;;;;22.72;87.20;97213.47;4945500;28;20240;-68
2021/08/26 00:28:03;;;;;;;3.10;2.80;;;;;;;22.54;87.19;97175.56;4941804;28;20532;-68
2021/08/26 00:30:29;;;;;;;3.60;3.13;;;;;;;22.81;87.44;97219.66;4945780;28;20313;-67
2021/08/26 00:32:56;;;;;;;4.40;3.40;;;;;;;22.01;86.86;97083.97;4948268;28;20588;-67
2021/08/26 00:35:22;;;;;;;3.50;3.20;;;;;;;22.81;87.00;97217.06;5049622;23;20255;-65
2021/08/26 00:37:49;;;;;;;3.10;2.80;;;;;;;22.67;87.18;97187.75;4951722;28;20242;-65
2021/08/26 00:40:15;;;;;;;4.07;3.17;;;;;;;22.82;87.13;97217.91;4949772;28;20695;-65
2021/08/26 00:42:42;;;;;;;3.30;3.00;;;;;;;22.78;87.07;97205.91;4947794;28;20686;-65
2021/08/26 00:45:09;;;;;;;6.13;3.13;;;;;;;22.82;87.13;97207.66;4945627;28;20342;-65
2021/08/26 00:47:37;;;;;;;3.20;2.90;;;;;;;22.82;87.09;97207.66;4945200;28;20246;-66
2021/08/26 00:50:04;;;;;;;4.07;3.03;;;;;;;22.65;87.12;97181.72;4960592;28;20318;-65
2021/08/26 00:52:36;;;;;;;2.83;2.53;;;;;;;22.81;87.07;97206.84;4952748;28;20218;-63
2021/08/26 00:55:05;;;;;;;3.53;3.00;;;;;;;22.82;87.05;97212.78;4958272;28;20255;-65
2021/08/26 00:57:32;;;;;;;3.10;2.87;;;;;;;22.82;87.02;97216.22;4954551;28;20240;-64
2021/08/26 00:59:58;;;;;;;2.80;2.50;;;;;;;22.81;87.19;97209.38;4947988;28;20354;-63
2021/08/26 01:02:32;;;;;;;2.83;2.63;;;;;;;22.82;87.17;97207.66;4947254;28;20216;-65
2021/08/26 01:05:17;;;;;;;2.77;2.57;;;;;;;22.82;87.14;97207.66;4939680;28;20599;-65
2021/08/26 01:07:48;;;;;;;3.20;2.90;;;;;;;22.82;87.17;97205.97;4931761;28;20737;-65
2021/08/26 01:10:16;;;;;;;2.83;2.57;;;;;;;22.83;87.18;97201.72;4948994;28;20641;-65
2021/08/26 01:12:44;;;;;;;3.47;2.73;;;;;;;22.82;87.13;97195.72;4943452;28;20873;-65
2021/08/26 01:15:10;;;;;;;2.73;2.53;;;;;;;22.82;87.11;97187.16;4950697;28;20310;-65
2021/08/26 01:17:37;;;;;;;3.03;2.83;;;;;;;22.23;87.06;97083.56;4951069;28;20295;-65
2021/08/26 01:20:05;;;;;;;3.70;2.93;;;;;;;22.82;87.16;97185.50;4953233;28;20204;-65
2021/08/26 01:22:32;;;;;;;3.50;3.20;;;;;;;22.82;87.11;97190.63;4949959;28;20331;-65
2021/08/26 01:25:04;;;;;;;3.43;2.80;;;;;;;22.82;87.06;97195.72;4967198;28;20666;-65
2021/08/26 01:27:33;;;;;;;3.00;2.70;;;;;;;21.79;87.09;97009.31;4949497;28;20210;-64
2021/08/26 01:30:01;;;;;;;4.27;2.57;;;;;;;22.78;87.01;97185.41;4948059;28;20306;-65
2021/08/26 01:32:28;;;;;;;2.93;2.70;;;;;;;22.83;87.09;97188.91;4935273;29;20211;-65
2021/08/26 01:34:55;;;;;;;2.63;2.43;;;;;;;21.96;87.33;97039.50;4953390;28;20335;-65
2021/08/26 01:37:22;;;;;;;3.97;3.00;;;;;;;22.82;87.25;97189.75;4950544;28;20232;-63
2021/08/26 01:39:49;;;;;;;3.00;2.70;;;;;;;22.82;87.04;97193.16;4949584;28;20228;-65
2021/08/26 01:42:16;;;;;;;2.80;2.60;;;;;;;22.82;87.05;97187.16;4947748;28;20236;-64
2021/08/26 01:44:43;;;;;;;3.17;2.87;;;;;;;22.82;87.17;97189.75;4953527;28;20231;-64
2021/08/26 01:47:16;;;;;;;3.10;2.80;;;;;;;22.74;87.16;97168.25;4963395;28;20252;-64
2021/08/26 01:49:43;;;;;;;2.93;2.63;;;;;;;22.83;87.17;97181.25;4949673;28;20244;-65
2021/08/26 01:52:12;;;;;;;2.60;2.40;;;;;;;22.82;87.17;97182.91;4973200;28;20298;-64
2021/08/26 01:54:38;;;;;;;3.00;2.67;;;;;;;21.83;87.03;97008.53;4953863;28;20251;-64
2021/08/26 01:57:05;;;;;;;3.60;2.83;;;;;;;22.82;87.05;97171.81;4955090;28;20243;-65
2021/08/26 01:59:32;;;;;;;2.60;2.40;;;;;;;22.82;87.20;97169.25;4954952;28;20239;-65
2021/08/26 02:01:59;;;;;;;3.20;2.90;;;;;;;22.50;87.43;97113.97;4953280;28;20223;-65
2021/08/26 02:04:26;;;;;;;2.90;2.60;;;;;;;22.79;87.31;97164.94;4951230;28;20231;-65
2021/08/26 02:06:52;;;;;;;2.90;2.60;;;;;;;22.78;87.19;97159.78;4951545;28;20932;-65
2021/08/26 02:09:19;;;;;;;3.10;2.80;;;;;;;22.77;87.35;97164.03;4958027;28;20693;-65
2021/08/26 02:11:46;;;;;;;3.13;2.60;;;;;;;22.39;87.44;97087.28;4953903;28;20303;-65
2021/08/26 02:14:12;;;;;;;2.43;2.23;;;;;;;22.76;87.96;97153.75;4954575;28;20358;-65
2021/08/26 02:16:39;;;;;;;2.57;2.37;;;;;;;22.76;87.75;97152.06;4960855;28;20232;-65
2021/08/26 02:19:05;;;;;;;3.00;2.70;;;;;;;22.77;87.69;97142.69;4953429;28;20717;-65
2021/08/26 02:21:32;;;;;;;2.70;2.50;;;;;;;22.77;87.15;97140.97;4953043;28;20227;-65
2021/08/26 02:23:58;;;;;;;3.63;2.37;;;;;;;22.77;87.42;97135.00;4952836;28;20231;-65
2021/08/26 02:26:25;;;;;;;3.13;2.83;;;;;;;22.78;87.57;97136.72;4953896;28;20232;-64
2021/08/26 02:28:52;;;;;;;2.87;2.67;;;;;;;22.63;87.27;97106.56;4946700;28;20244;-65
2021/08/26 02:31:18;;;;;;;3.23;2.63;;;;;;;22.65;87.45;97110.00;4967855;28;20420;-65
2021/08/26 02:33:45;;;;;;;3.10;2.80;;;;;;;22.79;87.58;97120.50;4946075;28;20200;-65
2021/08/26 02:36:11;;;;;;;3.17;2.87;;;;;;;22.78;87.63;97117.09;4955606;28;20239;-65
2021/08/26 02:38:38;;;;;;;3.20;2.90;;;;;;;22.78;87.26;97111.09;4951025;28;20236;-64
2021/08/26 02:41:04;;;;;;;2.80;2.60;;;;;;;22.77;87.53;97102.53;4953598;28;20235;-64
2021/08/26 02:43:31;;;;;;;3.13;2.83;;;;;;;22.78;87.52;97104.28;4952797;28;20574;-65
2021/08/26 02:45:58;;;;;;;2.73;2.50;;;;;;;22.78;87.52;97103.41;4959496;28;20675;-65
2021/08/26 02:48:24;;;;;;;2.70;2.50;;;;;;;22.79;87.48;97100.00;4954900;28;20259;-65
2021/08/26 02:50:51;;;;;;;2.70;2.50;;;;;;;22.78;87.57;97090.59;4960216;28;20318;-65
2021/08/26 02:53:17;;;;;;;3.93;2.57;;;;;;;22.79;87.51;97094.88;4956983;28;20300;-65
2021/08/26 02:55:44;;;;;;;2.90;2.60;;;;;;;22.79;87.46;97089.75;4953447;28;20315;-65
2021/08/26 02:58:11;;;;;;;2.63;2.43;;;;;;;22.78;87.06;97080.34;4952759;28;20204;-65
2021/08/26 03:00:37;;;;;;;2.80;2.60;;;;;;;22.77;87.49;97086.34;4952115;28;20210;-65
2021/08/26 03:03:04;;;;;;;3.27;2.53;;;;;;;22.79;87.54;97085.50;4951386;28;20208;-65
2021/08/26 03:05:31;;;;;;;2.67;2.40;;;;;;;22.79;87.63;97085.50;4948986;28;20734;-65
2021/08/26 03:07:58;;;;;;;2.70;2.50;;;;;;;22.78;87.75;97078.66;4954264;28;20212;-65
2021/08/26 03:10:25;;;;;;;3.77;2.50;;;;;;;22.79;87.54;97079.50;4957673;28;20251;-65
2021/08/26 03:12:51;;;;;;;2.83;2.63;;;;;;;22.19;87.11;96983.66;4946584;28;20252;-65
2021/08/26 03:15:18;;;;;;;3.00;2.57;;;;;;;22.78;87.47;97073.53;4950704;28;20662;-65
2021/08/26 03:17:44;;;;;;;3.00;2.53;;;;;;;22.79;87.62;97072.69;4952500;28;20311;-65
2021/08/26 03:20:12;;;;;;;2.73;2.50;;;;;;;22.79;87.55;97075.25;4961798;28;20491;-65
2021/08/26 03:22:38;;;;;;;3.10;2.80;;;;;;;22.80;87.38;97076.13;4952417;28;20295;-64
2021/08/26 03:25:05;;;;;;;2.80;2.60;;;;;;;22.80;87.60;97076.13;4952062;28;20796;-65
2021/08/26 03:27:32;;;;;;;2.80;2.60;;;;;;;22.80;87.37;97078.69;4951905;28;20239;-65
2021/08/26 03:29:58;;;;;;;2.83;2.50;;;;;;;22.43;87.44;97015.69;4957657;28;20208;-65
2021/08/26 03:32:25;;;;;;;2.90;2.60;;;;;;;22.80;87.37;97076.13;4952854;28;20235;-64
2021/08/26 03:34:52;;;;;;;2.80;2.60;;;;;;;22.80;87.50;97078.69;4953219;28;20327;-65
2021/08/26 03:37:18;;;;;;;2.73;2.53;;;;;;;22.80;87.77;97079.53;4948695;28;20761;-65
2021/08/26 03:39:45;;;;;;;2.37;2.17;;;;;;;22.80;87.64;97086.38;4949659;28;20667;-65
2021/08/26 03:42:11;;;;;;;2.97;2.70;;;;;;;22.79;87.56;97082.06;4958434;28;20633;-64
2021/08/26 03:44:38;;;;;;;2.97;2.67;;;;;;;22.11;87.92;96969.88;4952244;28;20259;-63
2021/08/26 03:47:04;;;;;;;3.07;2.77;;;;;;;21.75;87.09;96910.31;4952024;28;20200;-64
2021/08/26 03:49:31;;;;;;;2.90;2.60;;;;;;;22.63;87.81;97064.72;4958927;28;20228;-65
2021/08/26 03:51:58;;;;;;;2.90;2.50;;;;;;;22.75;87.88;97086.31;4953011;28;20325;-65
2021/08/26 03:54:25;;;;;;;3.30;2.60;;;;;;;22.74;87.87;97084.56;4952095;28;20256;-64
2021/08/26 03:56:51;;;;;;;2.50;2.30;;;;;;;22.74;88.03;97086.28;4948543;28;20296;-65
2021/08/26 03:59:18;;;;;;;3.00;2.70;;;;;;;22.67;87.93;97069.06;4945146;28;20243;-65
2021/08/26 04:01:44;;;;;;;2.80;2.50;;;;;;;22.74;87.89;97076.88;4953404;28;20274;-65
2021/08/26 04:04:11;;;;;;;2.90;2.60;;;;;;;22.75;87.94;97078.63;4950819;28;20722;-65
2021/08/26 04:06:38;;;;;;;2.43;2.20;;;;;;;22.76;87.69;97082.03;4953764;28;20298;-62
2021/08/26 04:09:04;;;;;;;2.90;2.60;;;;;;;22.76;87.78;97087.16;4946977;28;20654;-65
2021/08/26 04:11:31;;;;;;;2.70;2.50;;;;;;;22.76;87.87;97087.16;4952444;28;20224;-65
2021/08/26 04:13:57;;;;;;;2.57;2.37;;;;;;;22.76;88.09;97074.34;4949740;28;20294;-65
2021/08/26 04:16:24;;;;;;;2.40;2.20;;;;;;;22.77;87.93;97087.16;4950862;28;20288;-65
2021/08/26 04:18:51;;;;;;;2.77;2.47;;;;;;;22.76;87.86;97082.88;4951809;28;20697;-65
2021/08/26 04:21:17;;;;;;;2.70;2.50;;;;;;;22.76;88.39;97082.03;4948210;28;20228;-65
2021/08/26 04:23:44;;;;;;;2.60;2.40;;;;;;;22.76;87.79;97079.47;4950087;28;20236;-65
2021/08/26 04:26:10;;;;;;;2.90;2.60;;;;;;;22.77;88.27;97076.09;4945828;28;20732;-65
2021/08/26 04:28:37;;;;;;;2.80;2.50;;;;;;;22.76;87.90;97070.09;4949187;28;20236;-65
2021/08/26 04:31:03;;;;;;;3.17;2.87;;;;;;;22.78;87.87;97067.53;4949057;28;20318;-65
2021/08/26 04:33:30;;;;;;;3.13;2.50;;;;;;;22.77;87.87;97069.25;4954289;28;20201;-65
2021/08/26 04:35:57;;;;;;;2.60;2.40;;;;;;;22.77;87.69;97069.25;4945485;28;20318;-64
2021/08/26 04:38:23;;;;;;;2.70;2.50;;;;;;;22.78;87.89;97065.00;4950819;28;20295;-65
2021/08/26 04:40:50;;;;;;;2.80;2.60;;;;;;;22.76;87.86;97062.41;4951644;28;20260;-65
2021/08/26 04:43:16;;;;;;;2.73;2.53;;;;;;;22.77;87.87;97068.41;4954562;28;20307;-65
2021/08/26 04:45:43;;;;;;;2.63;2.40;;;;;;;22.78;87.19;97065.00;4956526;28;20251;-64
2021/08/26 04:48:09;;;;;;;2.50;2.30;;;;;;;21.78;87.89;96887.34;4955937;28;20583;-65
2021/08/26 04:50:36;;;;;;;2.80;2.50;;;;;;;22.78;87.81;97053.06;4959004;28;20259;-65
2021/08/26 04:53:03;;;;;;;2.57;2.37;;;;;;;22.77;87.67;97064.13;4949245;28;20243;-65
2021/08/26 04:55:29;;;;;;;2.90;2.70;;;;;;;22.73;87.37;97054.66;4952198;28;20314;-65
2021/08/26 04:57:56;;;;;;;2.97;2.60;;;;;;;22.79;87.78;97064.13;4951159;28;20234;-65
2021/08/26 05:00:22;;;;;;;2.87;2.57;;;;;;;22.75;87.91;97059.81;4953295;28;20675;-65
2021/08/26 05:02:49;;;;;;;2.63;2.43;;;;;;;22.79;87.81;97057.31;4942737;28;20209;-65
2021/08/26 05:05:16;;;;;;;2.73;2.53;;;;;;;22.78;87.83;97055.63;4943160;28;20251;-65
2021/08/26 05:07:43;;;;;;;2.50;2.30;;;;;;;22.80;88.02;97060.75;4943909;28;20240;-64
2021/08/26 05:10:09;;;;;;;2.97;2.70;;;;;;;22.80;87.88;97058.19;4945621;28;20236;-65
2021/08/26 05:12:36;;;;;;;2.53;2.30;;;;;;;22.81;87.70;97059.91;4939738;28;21042;-65
2021/08/26 05:15:03;;;;;;;2.40;2.20;;;;;;;22.80;87.75;97065.88;4946294;28;20300;-65
2021/08/26 05:17:29;;;;;;;3.17;2.50;;;;;;;22.80;87.79;97060.75;4938307;28;20201;-65
2021/08/26 05:19:56;;;;;;;2.67;2.47;;;;;;;22.80;87.66;97068.44;4949254;28;20278;-65
2021/08/26 05:22:23;;;;;;;2.70;2.50;;;;;;;22.80;87.75;97071.84;4943992;28;20233;-65
2021/08/26 05:24:51;;;;;;;2.63;2.43;;;;;;;22.80;87.65;97066.72;4946515;28;20252;-63
2021/08/26 05:27:18;;;;;;;2.93;2.63;;;;;;;22.79;87.70;97075.25;4946696;28;20720;-65
2021/08/26 05:29:45;;;;;;;4.10;3.37;;;;;;;22.78;86.68;97063.31;4947603;28;20319;-67
2021/08/26 05:32:12;;;;;;;3.73;3.33;;;;;;;22.76;85.50;97058.97;4951294;28;20259;-66
2021/08/26 05:34:38;;;;;;;6.43;4.00;;;;;;;22.45;85.04;97008.91;4951802;28;20285;-63
2021/08/26 05:37:05;;;;;;;8.70;4.10;;;;;;;22.75;84.98;97058.13;4959431;28;20318;-66
2021/08/26 05:39:31;;;;;;;4.40;3.80;;;;;;;22.76;85.44;97056.41;4949636;28;20232;-65
2021/08/26 05:41:58;;;;;;;5.60;3.33;;;;;;;22.76;85.95;97056.41;4952242;28;20224;-66
2021/08/26 05:44:24;;;;;;;4.83;3.40;;;;;;;22.76;85.70;97062.41;4953914;28;20342;-66
2021/08/26 05:46:51;;;;;;;4.63;3.77;;;;;;;22.34;86.23;96994.16;4953347;28;20209;-66
2021/08/26 05:49:18;;;;;;;3.60;3.20;;;;;;;22.76;86.63;97062.41;4953426;28;20244;-65
2021/08/26 05:51:44;;;;;;;3.70;3.10;;;;;;;22.78;86.56;97063.31;4946667;28;20311;-66
2021/08/26 05:54:11;;;;;;;3.57;3.13;;;;;;;22.33;86.28;96995.00;4957019;28;20317;-65
2021/08/26 05:56:38;;;;;;;3.20;2.90;;;;;;;22.47;86.94;97016.59;4961720;28;20242;-66
2021/08/26 05:59:04;;;;;;;5.50;4.30;;;;;;;22.77;86.28;97069.25;4952238;28;20299;-65
2021/08/26 06:01:31;;;;;;;9.63;5.20;;;;;;;22.76;84.62;97080.34;4956134;28;20200;-65
2021/08/26 06:03:58;;;;;;;6.73;5.37;;;;;;;22.75;84.27;97070.94;4953261;28;20203;-66
2021/08/26 06:06:24;;;;;;;5.80;4.40;;;;;;;22.60;84.81;97042.50;4949422;28;20233;-66
2021/08/26 06:08:51;;;;;;;9.97;5.63;;;;;;;22.75;84.27;97083.75;4945376;28;20663;-65
2021/08/26 06:11:18;;;;;;;7.93;4.87;;;;;;;22.76;85.17;97077.78;4950502;28;20224;-64
2021/08/26 06:13:44;;;;;;;6.47;5.50;;;;;;;22.40;85.30;97025.00;4954147;28;20236;-64
2021/08/26 06:16:11;;;;;;;5.70;4.80;;;;;;;22.77;85.42;97083.75;4958305;28;20733;-65
2021/08/26 06:18:37;;;;;;;5.53;4.30;;;;;;;22.76;85.59;97085.47;4953619;28;20239;-64
2021/08/26 06:21:04;;;;;;;5.33;4.23;;;;;;;22.76;85.92;97082.88;4951857;28;20692;-65
2021/08/26 06:23:31;;;;;;;4.97;3.43;;;;;;;22.76;85.90;97084.59;4955736;28;20312;-65
2021/08/26 06:25:57;;;;;;;5.53;4.47;;;;;;;22.77;86.07;97089.72;4952416;28;20339;-66
2021/08/26 06:28:24;;;;;;;4.70;4.20;;;;;;;22.77;86.19;97081.22;4950729;28;20744;-65
2021/08/26 06:30:50;;;;;;;7.43;4.80;;;;;;;22.78;86.07;97082.91;4953046;28;20228;-65
2021/08/26 06:33:17;;;;;;;5.20;4.30;;;;;;;22.78;86.05;97082.91;4953822;28;20559;-65
2021/08/26 06:35:43;;;;;;;7.27;4.17;;;;;;;22.76;85.91;97080.34;4969925;23;20614;-66
2021/08/26 06:38:10;;;;;;;5.97;4.30;;;;;;;22.76;86.04;97076.91;4965198;28;20200;-67
2021/08/26 06:40:37;;;;;;;5.53;4.57;;;;;;;22.70;86.27;97074.22;4969135;28;20731;-67
2021/08/26 06:43:03;;;;;;;5.77;4.70;;;;;;;22.75;86.34;97076.06;4967764;28;20294;-67
2021/08/26 06:45:30;;;;;;;7.37;4.50;;;;;;;22.72;86.39;97067.44;4968681;28;20261;-67
2021/08/26 06:47:57;;;;;;;5.27;4.40;;;;;;;22.74;86.46;97073.47;4964837;28;20536;-66
2021/08/26 06:50:23;;;;;;;5.53;4.40;;;;;;;22.74;86.37;97066.63;4963885;28;20295;-67
2021/08/26 06:52:50;;;;;;;7.20;4.50;;;;;;;22.64;86.61;97051.94;4961974;28;20708;-67
2021/08/26 06:55:16;;;;;;;6.23;4.53;;;;;;;22.72;86.42;97070.88;4960852;28;20228;-67
2021/08/26 06:57:43;;;;;;;10.67;6.57;;;;;;;22.76;85.30;97079.47;4964855;28;20592;-67
2021/08/26 07:00:10;;;;;;;13.87;7.73;;;;;;;22.75;83.52;97086.31;4962242;28;20330;-67
2021/08/26 07:02:37;;;;;;;11.03;7.07;;;;;;;22.68;83.47;97068.25;4968458;28;20204;-67
2021/08/26 07:05:04;;;;;;;8.87;6.57;;;;;;;22.65;83.82;97060.50;4966556;28;20278;-67
2021/08/26 07:07:31;;;;;;;10.43;6.50;;;;;;;22.66;84.08;97060.53;4967017;28;20287;-67
2021/08/26 07:09:57;;;;;;;11.10;6.27;;;;;;;22.76;84.43;97075.22;4966095;28;20262;-67
2021/08/26 07:12:25;;;;;;;9.50;6.40;;;;;;;22.77;84.70;97063.28;4968198;28;20728;-67
2021/08/26 07:14:52;;;;;;;8.10;6.40;;;;;;;22.76;84.97;97064.09;4968362;28;20788;-67
2021/08/26 07:17:18;;;;;;;7.03;5.37;;;;;;;22.71;85.00;97061.44;4968755;28;20298;-66
2021/08/26 07:19:45;;;;;;;8.90;5.93;;;;;;;22.73;84.75;97072.59;4969099;28;20684;-67
2021/08/26 07:22:11;;;;;;;7.13;5.83;;;;;;;22.74;85.37;97071.75;4969094;28;20404;-66
2021/08/26 07:24:38;;;;;;;7.03;5.30;;;;;;;22.74;85.45;97073.47;4968697;28;20608;-67
2021/08/26 07:27:04;;;;;;;13.90;5.47;;;;;;;22.73;85.67;97070.03;4967343;28;20231;-66
2021/08/26 07:29:31;;;;;;;6.63;5.20;;;;;;;22.74;85.74;97070.91;4969120;28;20206;-67
2021/08/26 07:31:57;;;;;;;8.47;5.67;;;;;;;22.41;85.59;97004.53;4968652;28;20314;-66
2021/08/26 07:34:24;;;;;;;6.63;4.90;;;;;;;22.74;85.90;97070.91;4954121;28;20214;-67
2021/08/26 07:36:50;;;;;;;6.10;5.50;;;;;;;22.69;86.12;97057.16;4968374;28;20265;-67
2021/08/26 07:39:17;;;;;;;6.13;5.20;;;;;;;22.72;86.07;97065.75;4967192;28;20531;-67
2021/08/26 07:41:44;;;;;;;7.17;5.70;;;;;;;22.75;86.38;97073.50;4968373;28;20298;-66
2021/08/26 07:44:10;;;;;;;6.97;4.90;;;;;;;22.75;86.20;97080.31;4969106;28;20290;-67
2021/08/26 07:46:37;;;;;;;7.00;5.53;;;;;;;22.75;85.98;97078.63;4968858;28;20251;-67
2021/08/26 07:49:05;;;;;;;6.43;5.27;;;;;;;22.75;86.21;97070.94;4968505;28;20209;-66
2021/08/26 07:51:31;;;;;;;6.03;5.13;;;;;;;22.76;86.16;97075.22;4968192;28;20246;-67
2021/08/26 07:53:59;;;;;;;6.50;5.17;;;;;;;22.77;86.20;97078.66;4968945;28;20211;-67
2021/08/26 07:56:26;;;;;;;6.10;4.97;;;;;;;22.77;86.38;97082.03;4968611;28;20259;-67
2021/08/26 07:58:53;;;;;;;7.33;5.70;;;;;;;22.77;86.21;97091.47;4966794;28;20295;-67
2021/08/26 08:01:20;;;;;;;6.30;4.90;;;;;;;22.66;86.32;97065.66;4968454;28;20232;-67
2021/08/26 08:03:47;;;;;;;7.13;4.93;;;;;;;22.70;86.33;97064.84;4966888;28;20238;-67
2021/08/26 08:06:13;;;;;;;6.93;4.93;;;;;;;22.74;86.47;97071.75;4965471;28;20323;-67
2021/08/26 08:08:40;;;;;;;6.30;5.13;;;;;;;22.73;86.42;97071.72;4965729;28;20229;-66
2021/08/26 08:11:06;;;;;;;5.73;4.73;;;;;;;22.70;86.30;97067.41;4966626;28;20242;-66
2021/08/26 08:13:35;;;;;;;7.53;4.90;;;;;;;22.61;86.08;97051.88;4966607;28;20603;-66
2021/08/26 08:16:04;;;;;;;7.33;5.20;;;;;;;22.64;86.48;97056.19;4949798;28;20318;-67
2021/08/26 08:18:30;;;;;;;6.90;5.17;;;;;;;22.66;86.81;97054.53;4960572;28;20204;-67
2021/08/26 08:20:57;;;;;;;6.57;5.17;;;;;;;22.75;86.52;97065.81;4966643;28;20246;-67
2021/08/26 08:23:23;;;;;;;5.90;4.90;;;;;;;22.76;86.50;97066.66;4968131;28;20755;-67
2021/08/26 08:25:50;;;;;;;6.60;5.03;;;;;;;22.76;86.51;97064.09;4966393;28;20322;-67
2021/08/26 08:28:17;;;;;;;6.23;5.03;;;;;;;22.63;86.51;97046.78;4967756;28;20227;-66
2021/08/26 08:30:44;;;;;;;6.67;4.60;;;;;;;22.76;86.46;97059.84;4948697;28;20214;-66
2021/08/26 08:33:14;;;;;;;5.73;4.93;;;;;;;22.77;86.56;97063.28;4968045;28;20219;-65
2021/08/26 08:35:41;;;;;;;4.80;4.30;;;;;;;22.67;86.47;97048.56;4967810;28;20254;-67
2021/08/26 08:38:08;;;;;;;6.67;5.17;;;;;;;22.77;86.50;97060.72;4946147;28;20238;-67
2021/08/26 08:40:34;;;;;;;6.13;5.00;;;;;;;22.46;86.53;97004.63;4964997;28;20262;-67
2021/08/26 08:43:01;;;;;;;5.00;4.13;;;;;;;22.68;86.58;97042.63;4954607;28;20299;-66
2021/08/26 08:45:28;;;;;;;5.73;5.03;;;;;;;22.71;86.17;97046.06;4960631;28;20319;-67
2021/08/26 08:47:55;;;;;;;6.60;5.20;;;;;;;22.68;86.51;97050.31;4961148;28;20230;-68
2021/08/26 08:50:25;;;;;;;6.37;5.07;;;;;;;22.75;86.68;97059.81;4964679;28;20207;-67
2021/08/26 08:52:52;;;;;;;7.00;5.20;;;;;;;22.56;86.61;97027.88;4960839;28;20259;-67
2021/08/26 08:55:19;;;;;;;6.47;4.70;;;;;;;22.75;86.61;97059.81;4960086;28;20755;-66
2021/08/26 08:57:46;;;;;;;5.63;4.33;;;;;;;22.66;86.78;97052.84;4966325;28;20278;-67
2021/08/26 09:00:14;;;;;;;6.30;4.53;;;;;;;22.75;86.69;97062.38;4947124;28;20209;-67
2021/08/26 09:02:41;;;;;;;5.27;4.57;;;;;;;22.65;86.53;97045.97;4970292;28;20686;-67
2021/08/26 09:05:08;;;;;;;6.80;4.67;;;;;;;22.71;86.75;97052.91;4968654;28;20231;-67
2021/08/26 09:07:35;;;;;;;5.93;4.67;;;;;;;22.75;86.73;97062.38;4970460;28;20235;-67
2021/08/26 09:10:02;;;;;;;5.27;4.70;;;;;;;22.67;86.71;97046.88;4969564;28;20207;-67
2021/08/26 09:12:44;;;;;;;6.90;4.17;;;;;;;22.76;86.61;97064.97;4971273;28;20266;-67
2021/08/26 09:15:11;;;;;;;4.90;4.40;;;;;;;22.76;86.71;97071.78;4966377;28;20753;-66
2021/08/26 09:17:38;;;;;;;5.37;4.50;;;;;;;22.65;86.69;97050.25;4967703;28;20243;-67
2021/08/26 09:20:06;;;;;;;5.33;4.57;;;;;;;22.76;86.72;97064.97;4968782;28;20278;-67
2021/08/26 09:22:33;;;;;;;4.97;4.43;;;;;;;22.78;86.68;97075.22;4971340;28;20203;-67
2021/08/26 09:25:00;;;;;;;5.27;4.23;;;;;;;22.79;86.03;97076.94;4954037;28;20259;-67
2021/08/26 09:27:33;;;;;;;6.07;4.57;;;;;;;22.77;86.61;97070.97;4970813;28;20303;-67
2021/08/26 09:30:03;;;;;;;4.67;4.20;;;;;;;22.78;86.72;97073.53;4969507;28;20238;-66
2021/08/26 09:32:56;;;;;;;6.73;4.37;;;;;;;22.78;86.63;97076.09;4967690;28;20251;-67
2021/08/26 09:35:32;;;;;;;6.47;4.57;;;;;;;22.68;86.60;97058.84;4971003;28;20317;-66
2021/08/26 09:38:01;;;;;;;7.03;4.20;;;;;;;22.77;86.61;97073.53;4969710;28;20586;-67
2021/08/26 09:40:29;;;;;;;4.87;4.37;;;;;;;22.75;86.73;97059.81;4962305;28;20690;-67
2021/08/26 09:43:03;;;;;;;4.90;4.40;;;;;;;22.71;86.61;97064.00;4969213;28;20235;-67
2021/08/26 09:45:40;;;;;;;5.33;4.70;;;;;;;22.78;86.65;97065.00;4960630;28;20633;-67
2021/08/26 09:48:11;;;;;;;4.87;4.20;;;;;;;22.78;86.85;97065.84;4967273;28;20211;-67
2021/08/26 09:50:41;;;;;;;5.83;4.53;;;;;;;22.79;86.72;97064.13;4948239;28;20283;-67
2021/08/26 09:53:09;;;;;;;5.30;3.80;;;;;;;21.73;86.45;96877.88;4962577;28;20316;-67
2021/08/26 09:55:55;;;;;;;4.73;4.10;;;;;;;22.79;86.67;97062.44;4944145;28;20674;-66
2021/08/26 09:58:23;;;;;;;4.37;3.97;;;;;;;22.70;86.52;97057.16;4964868;28;20214;-68
2021/08/26 10:00:50;;;;;;;6.50;4.30;;;;;;;22.80;86.57;97081.25;4965807;28;20287;-67
2021/08/26 10:03:17;;;;;;;5.27;4.10;;;;;;;22.80;86.41;97073.56;4959372;28;20230;-66
2021/08/26 10:05:44;;;;;;;4.30;3.90;;;;;;;22.71;86.57;97061.44;4953450;28;20223;-68
2021/08/26 10:08:11;;;;;;;5.30;4.27;;;;;;;22.67;86.55;97048.56;4971282;28;20636;-68
2021/08/26 10:10:41;;;;;;;4.53;4.03;;;;;;;22.67;86.58;97057.13;4958898;28;20661;-67
2021/08/26 10:13:11;;;;;;;4.33;3.93;;;;;;;22.73;86.64;97058.91;4971335;28;20219;-67
2021/08/26 10:15:38;;;;;;;5.43;4.80;;;;;;;22.81;86.67;97077.84;4958781;28;20652;-67
2021/08/26 10:18:05;;;;;;;4.30;3.90;;;;;;;22.73;86.78;97066.59;4964392;28;20200;-66
2021/08/26 10:20:32;;;;;;;4.53;4.10;;;;;;;22.80;86.70;97083.81;4958567;28;20665;-67
2021/08/26 10:22:59;;;;;;;5.23;4.43;;;;;;;22.71;86.80;97063.16;4970954;28;20227;-68
2021/08/26 10:25:26;;;;;;;5.67;4.50;;;;;;;22.68;86.62;97060.56;4972213;28;20250;-68
2021/08/26 10:27:52;;;;;;;5.07;4.53;;;;;;;22.81;86.62;97088.09;4971728;28;20729;-67
2021/08/26 10:30:32;;;;;;;5.63;4.43;;;;;;;22.80;86.63;97084.66;4957892;28;20632;-67
2021/08/26 10:33:09;;;;;;;4.87;4.37;;;;;;;22.81;86.53;97085.53;4972031;28;20220;-68
2021/08/26 10:35:51;;;;;;;4.73;4.10;;;;;;;22.81;86.65;97078.72;4971508;28;20313;-67
2021/08/26 10:38:35;;;;;;;4.60;4.07;;;;;;;22.73;86.68;97053.78;4967555;28;20231;-67
2021/08/26 10:41:19;;;;;;;4.20;3.80;;;;;;;22.81;86.69;97075.28;4971853;28;20243;-67
2021/08/26 10:44:06;;;;;;;4.30;3.87;;;;;;;22.81;86.65;97067.59;4973299;28;20563;-67
2021/08/26 10:46:47;;;;;;;4.60;4.07;;;;;;;22.79;86.67;97075.25;4973063;28;20618;-67
2021/08/26 10:49:14;;;;;;;4.30;3.90;;;;;;;22.80;86.60;97074.41;4971505;28;20203;-67
2021/08/26 10:51:42;;;;;;;4.67;3.83;;;;;;;22.73;86.49;97056.34;4971128;28;20234;-67
2021/08/26 10:54:41;;;;;;;4.57;4.17;;;;;;;22.81;86.68;97070.16;4971798;28;20318;-67
2021/08/26 10:57:27;;;;;;;3.90;3.50;;;;;;;22.73;86.64;97049.53;4947085;28;20234;-68
2021/08/26 10:59:53;;;;;;;4.67;3.93;;;;;;;22.81;86.68;97068.47;4971202;28;20262;-67
2021/08/26 11:02:41;;;;;;;4.37;3.60;;;;;;;22.81;86.65;97068.47;4971517;28;20719;-67
2021/08/26 11:05:33;;;;;;;4.30;3.90;;;;;;;22.81;86.63;97068.47;4971832;28;20246;-68
2021/08/26 11:08:00;;;;;;;4.17;3.53;;;;;;;22.73;86.66;97052.09;4970301;28;20196;-67
2021/08/26 11:10:27;;;;;;;4.70;3.70;;;;;;;22.81;86.61;97068.47;4956912;28;20650;-67
2021/08/26 11:13:25;;;;;;;4.53;3.87;;;;;;;22.80;86.64;97064.16;4971717;28;20307;-67
2021/08/26 11:15:51;;;;;;;4.37;3.97;;;;;;;22.82;86.71;97064.19;4971690;28;20250;-67
2021/08/26 11:18:30;;;;;;;4.67;3.83;;;;;;;22.78;86.58;97059.88;4970548;28;20196;-68
2021/08/26 11:20:57;;;;;;;4.80;4.03;;;;;;;22.81;86.63;97060.78;4971102;28;20379;-67
2021/08/26 11:23:46;;;;;;;3.90;3.50;;;;;;;22.82;86.52;97059.06;4971209;28;20279;-67
2021/08/26 11:26:50;;;;;;;4.30;3.87;;;;;;;22.82;86.68;97072.75;4971172;28;20768;-67
2021/08/26 11:29:19;;;;;;;4.10;3.70;;;;;;;22.82;86.66;97057.38;4965649;28;20592;-67
2021/08/26 11:31:55;;;;;;;3.90;3.50;;;;;;;22.81;86.70;97047.97;4972038;28;20371;-68
2021/08/26 11:34:33;;;;;;;4.33;3.93;;;;;;;22.81;86.59;97054.78;4967350;28;20203;-66
2021/08/26 11:37:19;;;;;;;4.17;3.77;;;;;;;22.81;86.59;97053.09;4969034;28;20675;-68
2021/08/26 11:39:50;;;;;;;4.20;3.70;;;;;;;22.82;86.53;97049.69;4970975;28;20223;-67
2021/08/26 11:42:19;;;;;;;4.63;4.13;;;;;;;22.81;86.54;97041.97;4971639;28;20741;-67